Cordelia — A8TL8 — position and weather

sailwx.info

Track history (hours):
 
Tides and Currents Weather Stations Pressure Air Temp Water Temp Dewpoint Dewpoint Depression Visibility Wind Speed Wind Dir Waves Ship Positions

Cordelia

Last reported at 2018-Apr-24 05:51 UTC. Time now 2018-Apr-24 12:35 UTC.
Position N 35°36' E 139°47'.

Length 222 m; draft 10.1 m.

Type: Ship. MMSI: 636091837.

Date/timePositionNaut miles runAvg speedWind from/ knotsBaromVisibWave heightAir tempDewpointWater temp
2018-Apr-24 05:51N 35°36' E 139°47'0 0.0
2018-Apr-24 02:57N 35°36' E 139°47'0 0.0
2018-Apr-23 23:12N 35°36' E 139°47'0 0.0
2018-Apr-23 23:00N 35°36' E 139°47'0 0.0
2018-Apr-23 22:27N 35°36' E 139°47'1 1.3
2018-Apr-23 22:01N 35°36' E 139°47'4 8.7
2018-Apr-23 21:31N 35°33' E 139°51'3 5.3
2018-Apr-23 21:00N 35°31' E 139°52'3 5.8
2018-Apr-23 20:30N 35°28' E 139°51'5 9.7
2018-Apr-23 20:01N 35°26' E 139°45'3 5.9
2018-Apr-23 19:26N 35°26' E 139°41'0 0.0
2018-Apr-23 18:56N 35°26' E 139°41'0 0.0
2018-Apr-23 18:26N 35°26' E 139°41'0 0.0
2018-Apr-23 17:56N 35°26' E 139°41'0 0.0
2018-Apr-23 17:26N 35°26' E 139°41'0 0.0
2018-Apr-23 16:56N 35°26' E 139°41'0 0.0
2018-Apr-23 16:26N 35°26' E 139°41'0 0.0
2018-Apr-23 15:56N 35°26' E 139°41'0 0.0
2018-Apr-23 15:26N 35°26' E 139°41'0 0.0
2018-Apr-23 14:56N 35°26' E 139°41'0 0.0
2018-Apr-23 14:26N 35°26' E 139°41'0 0.0
2018-Apr-23 13:56N 35°26' E 139°41'0 0.0
2018-Apr-23 13:26N 35°26' E 139°41'0 0.0
2018-Apr-23 12:56N 35°26' E 139°41'0 0.0
2018-Apr-23 12:26N 35°26' E 139°41'0 0.0
2018-Apr-23 11:56N 35°26' E 139°41'0 0.0
2018-Apr-23 11:26N 35°26' E 139°41'0 0.0
2018-Apr-23 10:56N 35°26' E 139°41'0 0.0
2018-Apr-23 10:26N 35°26' E 139°41'0 0.1
2018-Apr-23 10:00N 35°26' E 139°41'2 3.8
2018-Apr-23 09:30N 35°26' E 139°43'0 0.1
2018-Apr-23 08:56N 35°26' E 139°43'0 0.1
2018-Apr-23 08:30N 35°26' E 139°43'3 5.1
2018-Apr-23 08:00N 35°23' E 139°43'612.8
2018-Apr-23 07:30N 35°17' E 139°45'612.4
2018-Apr-23 07:00N 35°11' E 139°47'4 8.5
2018-Apr-23 06:30N 35°07' E 139°45'4 8.7
2018-Apr-23 06:00N 35°03' E 139°42'4 8.8
2018-Apr-23 05:30N 35°01' E 139°38'5 9.4
2018-Apr-23 05:00N 34°58' E 139°33'5 9.7
2018-Apr-23 04:30N 34°55' E 139°28'611.5
2018-Apr-23 04:00N 34°51' E 139°23'612.5
2018-Apr-23 03:30N 34°47' E 139°17'1212.3
2018-Apr-23 02:31N 34°38' E 139°07'112.5
2018-Apr-23 02:27N 34°38' E 139°06'512.3
2018-Apr-23 02:00N 34°33' E 139°02'611.5
2018-Apr-23 01:30N 34°30' E 138°56'611.3
2018-Apr-23 00:58N 34°27' E 138°50'611.7
2018-Apr-23 00:28N 34°24' E 138°44'711.4
2018-Apr-22 23:50N 34°20' E 138°36'411.3
2018-Apr-22 23:29N 34°18' E 138°32'611.1
2018-Apr-22 22:59N 34°15' E 138°26'611.8
2018-Apr-22 22:29N 34°12' E 138°20'712.8
2018-Apr-22 21:58N 34°09' E 138°13'613.0
2018-Apr-22 21:30N 34°06' E 138°07'712.8
2018-Apr-22 20:59N 34°02' E 138°00'612.4
2018-Apr-22 20:28N 33°59' E 137°54'12216.8
2018-Apr-22 13:14N 32°60' E 135°47'417.0
2018-Apr-22 12:58N 32°58' E 135°42'2222.9
2018-Apr-22 12:00N 32°48' E 135°18'22819.0 250 / 111020.0 5.4 23.014.624.1
2018-Apr-22 00:00N 31°06' E 131°18'21618.0 110 / 111020.0 5.4 22.013.420.7
2018-Apr-21 12:00N 28°54' E 128°00'23219.3 130 / 151018.0 5.4 24.017.624.9
2018-Apr-21 00:00N 26°06' E 125°00'22318.5 100 / 131016.0 5.4 25.020.426.2
2018-Apr-20 12:00N 23°06' E 122°36'21017.5 060 / 191015.0 5.4 25.018.824.9
2018-Apr-20 00:00N 20°12' E 120°30'19916.6 060 / 291013.0 5.4 27.019.328.2
2018-Apr-19 12:00N 17°42' E 118°12'20917.4 050 / 241010.0 5.4 28.023.727.8
2018-Apr-19 00:00N 15°00' E 115°54'21017.5 040 / 141012.0 5.4 29.023.228.5
2018-Apr-18 12:00N 12°24' E 113°30'20316.9 040 / 131010.0 5.4 29.021.629.4
2018-Apr-18 00:00N 09°48' E 111°18'20717.3 040 / 201011.0 5.4 29.023.228.9
2018-Apr-17 12:00N 07°12' E 109°00'20417.0 040 / 201009.0 5.4 30.022.729.4
2018-Apr-17 00:00N 04°36' E 106°48'20517.1 070 / 101011.0 5.4 29.024.829.2
2018-Apr-16 12:00N 01°54' E 104°42'5514.6 320 / 91010.0 5.4 29.023.230.0
2018-Apr-16 08:14N 01°15' E 104°04'417.8
2018-Apr-16 07:59N 01°14' E 103°60'917.9
2018-Apr-16 07:29N 01°11' E 103°51'917.7
2018-Apr-16 06:59N 01°06' E 103°44'815.6
2018-Apr-16 06:30N 01°04' E 103°37'917.7
2018-Apr-16 06:00N 01°08' E 103°29'917.4
2018-Apr-16 05:30N 01°13' E 103°21'7 0.2
2018-Apr-14 12:29N 01°19' E 103°18'1120.2
2018-Apr-14 11:56N 01°13' E 103°28'1020.3
2018-Apr-14 11:27N 01°12' E 103°37'510.2
2018-Apr-14 11:01N 01°14' E 103°42'510.0
2018-Apr-14 10:30N 01°16' E 103°46'1 2.1
2018-Apr-14 09:58N 01°16' E 103°47'0 0.0
2018-Apr-14 09:20N 01°16' E 103°47'0 0.0
2018-Apr-14 08:55N 01°16' E 103°47'0 0.0
2018-Apr-14 08:25N 01°16' E 103°47'0 0.0
2018-Apr-14 07:55N 01°16' E 103°47'0 0.0
2018-Apr-14 07:25N 01°16' E 103°47'0 0.0
2018-Apr-14 06:55N 01°16' E 103°47'0 0.0
2018-Apr-14 06:25N 01°16' E 103°47'0 0.0
2018-Apr-14 05:55N 01°16' E 103°47'  
Track history (hours):
 
Tides and Currents Weather Stations Pressure Air Temp Water Temp Dewpoint Dewpoint Depression Visibility Wind Speed Wind Dir Waves Ship Positions

Cordelia

Last reported at 2018-Apr-24 05:51 UTC. Time now 2018-Apr-24 12:35 UTC.
Position N 35°36' E 139°47'.

Length 222 m; draft 10.1 m.

Type: Ship. MMSI: 636091837.

Date/timePositionNaut miles runAvg speedWind from/ knotsBaromVisibWave heightAir tempDewpointWater temp
2018-Apr-24 05:51N 35°36' E 139°47'0 0.0
2018-Apr-24 02:57N 35°36' E 139°47'0 0.0
2018-Apr-23 23:12N 35°36' E 139°47'0 0.0
2018-Apr-23 23:00N 35°36' E 139°47'0 0.0
2018-Apr-23 22:27N 35°36' E 139°47'1 1.3
2018-Apr-23 22:01N 35°36' E 139°47'4 8.7
2018-Apr-23 21:31N 35°33' E 139°51'3 5.3
2018-Apr-23 21:00N 35°31' E 139°52'3 5.8
2018-Apr-23 20:30N 35°28' E 139°51'5 9.7
2018-Apr-23 20:01N 35°26' E 139°45'3 5.9
2018-Apr-23 19:26N 35°26' E 139°41'0 0.0
2018-Apr-23 18:56N 35°26' E 139°41'0 0.0
2018-Apr-23 18:26N 35°26' E 139°41'0 0.0
2018-Apr-23 17:56N 35°26' E 139°41'0 0.0
2018-Apr-23 17:26N 35°26' E 139°41'0 0.0
2018-Apr-23 16:56N 35°26' E 139°41'0 0.0
2018-Apr-23 16:26N 35°26' E 139°41'0 0.0
2018-Apr-23 15:56N 35°26' E 139°41'0 0.0
2018-Apr-23 15:26N 35°26' E 139°41'0 0.0
2018-Apr-23 14:56N 35°26' E 139°41'0 0.0
2018-Apr-23 14:26N 35°26' E 139°41'0 0.0
2018-Apr-23 13:56N 35°26' E 139°41'0 0.0
2018-Apr-23 13:26N 35°26' E 139°41'0 0.0
2018-Apr-23 12:56N 35°26' E 139°41'0 0.0
2018-Apr-23 12:26N 35°26' E 139°41'0 0.0
2018-Apr-23 11:56N 35°26' E 139°41'0 0.0
2018-Apr-23 11:26N 35°26' E 139°41'0 0.0
2018-Apr-23 10:56N 35°26' E 139°41'0 0.0
2018-Apr-23 10:26N 35°26' E 139°41'0 0.1
2018-Apr-23 10:00N 35°26' E 139°41'2 3.8
2018-Apr-23 09:30N 35°26' E 139°43'0 0.1
2018-Apr-23 08:56N 35°26' E 139°43'0 0.1
2018-Apr-23 08:30N 35°26' E 139°43'3 5.1
2018-Apr-23 08:00N 35°23' E 139°43'612.8
2018-Apr-23 07:30N 35°17' E 139°45'612.4
2018-Apr-23 07:00N 35°11' E 139°47'4 8.5
2018-Apr-23 06:30N 35°07' E 139°45'4 8.7
2018-Apr-23 06:00N 35°03' E 139°42'4 8.8
2018-Apr-23 05:30N 35°01' E 139°38'5 9.4
2018-Apr-23 05:00N 34°58' E 139°33'5 9.7
2018-Apr-23 04:30N 34°55' E 139°28'611.5
2018-Apr-23 04:00N 34°51' E 139°23'612.5
2018-Apr-23 03:30N 34°47' E 139°17'1212.3
2018-Apr-23 02:31N 34°38' E 139°07'112.5
2018-Apr-23 02:27N 34°38' E 139°06'512.3
2018-Apr-23 02:00N 34°33' E 139°02'611.5
2018-Apr-23 01:30N 34°30' E 138°56'611.3
2018-Apr-23 00:58N 34°27' E 138°50'611.7
2018-Apr-23 00:28N 34°24' E 138°44'711.4
2018-Apr-22 23:50N 34°20' E 138°36'411.3
2018-Apr-22 23:29N 34°18' E 138°32'611.1
2018-Apr-22 22:59N 34°15' E 138°26'611.8
2018-Apr-22 22:29N 34°12' E 138°20'712.8
2018-Apr-22 21:58N 34°09' E 138°13'613.0
2018-Apr-22 21:30N 34°06' E 138°07'712.8
2018-Apr-22 20:59N 34°02' E 138°00'612.4
2018-Apr-22 20:28N 33°59' E 137°54'12216.8
2018-Apr-22 13:14N 32°60' E 135°47'417.0
2018-Apr-22 12:58N 32°58' E 135°42'2222.9
2018-Apr-22 12:00N 32°48' E 135°18'22819.0 250 / 111020.0 5.4 23.014.624.1
2018-Apr-22 00:00N 31°06' E 131°18'21618.0 110 / 111020.0 5.4 22.013.420.7
2018-Apr-21 12:00N 28°54' E 128°00'23219.3 130 / 151018.0 5.4 24.017.624.9
2018-Apr-21 00:00N 26°06' E 125°00'22318.5 100 / 131016.0 5.4 25.020.426.2
2018-Apr-20 12:00N 23°06' E 122°36'21017.5 060 / 191015.0 5.4 25.018.824.9
2018-Apr-20 00:00N 20°12' E 120°30'19916.6 060 / 291013.0 5.4 27.019.328.2
2018-Apr-19 12:00N 17°42' E 118°12'20917.4 050 / 241010.0 5.4 28.023.727.8
2018-Apr-19 00:00N 15°00' E 115°54'21017.5 040 / 141012.0 5.4 29.023.228.5
2018-Apr-18 12:00N 12°24' E 113°30'20316.9 040 / 131010.0 5.4 29.021.629.4
2018-Apr-18 00:00N 09°48' E 111°18'20717.3 040 / 201011.0 5.4 29.023.228.9
2018-Apr-17 12:00N 07°12' E 109°00'20417.0 040 / 201009.0 5.4 30.022.729.4
2018-Apr-17 00:00N 04°36' E 106°48'20517.1 070 / 101011.0 5.4 29.024.829.2
2018-Apr-16 12:00N 01°54' E 104°42'5514.6 320 / 91010.0 5.4 29.023.230.0
2018-Apr-16 08:14N 01°15' E 104°04'417.8
2018-Apr-16 07:59N 01°14' E 103°60'917.9
2018-Apr-16 07:29N 01°11' E 103°51'917.7
2018-Apr-16 06:59N 01°06' E 103°44'815.6
2018-Apr-16 06:30N 01°04' E 103°37'917.7
2018-Apr-16 06:00N 01°08' E 103°29'917.4
2018-Apr-16 05:30N 01°13' E 103°21'7 0.2
2018-Apr-14 12:29N 01°19' E 103°18'1120.2
2018-Apr-14 11:56N 01°13' E 103°28'1020.3
2018-Apr-14 11:27N 01°12' E 103°37'510.2
2018-Apr-14 11:01N 01°14' E 103°42'510.0
2018-Apr-14 10:30N 01°16' E 103°46'1 2.1
2018-Apr-14 09:58N 01°16' E 103°47'0 0.0
2018-Apr-14 09:20N 01°16' E 103°47'0 0.0
2018-Apr-14 08:55N 01°16' E 103°47'0 0.0
2018-Apr-14 08:25N 01°16' E 103°47'0 0.0
2018-Apr-14 07:55N 01°16' E 103°47'0 0.0
2018-Apr-14 07:25N 01°16' E 103°47'0 0.0
2018-Apr-14 06:55N 01°16' E 103°47'0 0.0
2018-Apr-14 06:25N 01°16' E 103°47'0 0.0
2018-Apr-14 05:55N 01°16' E 103°47'  

Dump ship's entire track history